sensor_id;sensor_type;location;lat;lon;timestamp;temperature;humidity
32664;DHT22;19847;48.670;9.242;2022-09-23T00:00:22;6.90;99.90
32664;DHT22;19847;48.670;9.242;2022-09-23T00:03:44;6.90;99.90
32664;DHT22;19847;48.670;9.242;2022-09-23T00:07:06;6.80;99.90
32664;DHT22;19847;48.670;9.242;2022-09-23T00:10:27;6.80;99.90
32664;DHT22;19847;48.670;9.242;2022-09-23T00:13:50;6.80;99.90
32664;DHT22;19847;48.670;9.242;2022-09-23T00:17:13;6.70;99.90
32664;DHT22;19847;48.670;9.242;2022-09-23T00:20:35;6.70;99.90
32664;DHT22;19847;48.670;9.242;2022-09-23T00:23:56;6.80;99.90
32664;DHT22;19847;48.670;9.242;2022-09-23T00:27:18;6.70;99.90
32664;DHT22;19847;48.670;9.242;2022-09-23T00:30:39;6.60;99.90
32664;DHT22;19847;48.670;9.242;2022-09-23T00:34:03;6.60;99.90
32664;DHT22;19847;48.670;9.242;2022-09-23T00:37:24;6.60;99.90
32664;DHT22;19847;48.670;9.242;2022-09-23T00:40:46;6.60;99.90
32664;DHT22;19847;48.670;9.242;2022-09-23T00:47:50;6.50;99.90
32664;DHT22;19847;48.670;9.242;2022-09-23T00:51:15;6.50;99.90
32664;DHT22;19847;48.670;9.242;2022-09-23T00:54:39;6.50;99.90
32664;DHT22;19847;48.670;9.242;2022-09-23T00:58:02;6.60;99.90
32664;DHT22;19847;48.670;9.242;2022-09-23T01:01:24;6.50;99.90
32664;DHT22;19847;48.670;9.242;2022-09-23T01:04:46;6.60;99.90
32664;DHT22;19847;48.670;9.242;2022-09-23T01:08:10;6.50;99.90
32664;DHT22;19847;48.670;9.242;2022-09-23T01:11:35;6.50;99.90
32664;DHT22;19847;48.670;9.242;2022-09-23T01:15:00;6.50;99.90
32664;DHT22;19847;48.670;9.242;2022-09-23T01:18:26;6.50;99.90
32664;DHT22;19847;48.670;9.242;2022-09-23T01:21:55;6.50;99.90
32664;DHT22;19847;48.670;9.242;2022-09-23T01:25:26;6.50;99.90
32664;DHT22;19847;48.670;9.242;2022-09-23T01:28:59;6.50;99.90
32664;DHT22;19847;48.670;9.242;2022-09-23T01:32:25;6.50;99.90
32664;DHT22;19847;48.670;9.242;2022-09-23T01:35:53;6.50;99.90
32664;DHT22;19847;48.670;9.242;2022-09-23T01:39:20;6.50;99.90
32664;DHT22;19847;48.670;9.242;2022-09-23T01:42:44;6.40;99.90
32664;DHT22;19847;48.670;9.242;2022-09-23T01:46:08;6.40;99.90
32664;DHT22;19847;48.670;9.242;2022-09-23T01:49:37;6.50;99.90
32664;DHT22;19847;48.670;9.242;2022-09-23T01:53:00;6.40;99.90
32664;DHT22;19847;48.670;9.242;2022-09-23T01:56:26;6.30;99.90
32664;DHT22;19847;48.670;9.242;2022-09-23T01:59:49;6.30;99.90
32664;DHT22;19847;48.670;9.242;2022-09-23T02:03:14;6.30;99.90
32664;DHT22;19847;48.670;9.242;2022-09-23T02:06:38;6.20;99.90
32664;DHT22;19847;48.670;9.242;2022-09-23T02:10:04;6.20;99.90
32664;DHT22;19847;48.670;9.242;2022-09-23T02:13:28;6.20;99.90
32664;DHT22;19847;48.670;9.242;2022-09-23T02:16:51;6.10;99.90
32664;DHT22;19847;48.670;9.242;2022-09-23T02:20:15;6.10;99.90
32664;DHT22;19847;48.670;9.242;2022-09-23T02:23:42;6.10;99.90
32664;DHT22;19847;48.670;9.242;2022-09-23T02:27:06;6.10;99.90
32664;DHT22;19847;48.670;9.242;2022-09-23T02:30:31;6.10;99.90
32664;DHT22;19847;48.670;9.242;2022-09-23T02:33:53;6.00;99.90
32664;DHT22;19847;48.670;9.242;2022-09-23T02:37:19;6.00;99.90
32664;DHT22;19847;48.670;9.242;2022-09-23T02:40:47;6.00;99.90
32664;DHT22;19847;48.670;9.242;2022-09-23T02:44:11;6.00;99.90
32664;DHT22;19847;48.670;9.242;2022-09-23T02:47:34;6.00;99.90
32664;DHT22;19847;48.670;9.242;2022-09-23T02:50:57;5.90;99.90
32664;DHT22;19847;48.670;9.242;2022-09-23T02:54:19;5.90;99.90
32664;DHT22;19847;48.670;9.242;2022-09-23T02:57:43;5.90;99.90
32664;DHT22;19847;48.670;9.242;2022-09-23T03:01:06;5.80;99.90
32664;DHT22;19847;48.670;9.242;2022-09-23T03:04:34;5.80;99.90
32664;DHT22;19847;48.670;9.242;2022-09-23T03:08:03;5.70;99.90
32664;DHT22;19847;48.670;9.242;2022-09-23T03:11:27;5.70;99.90
32664;DHT22;19847;48.670;9.242;2022-09-23T03:14:51;5.70;99.90
32664;DHT22;19847;48.670;9.242;2022-09-23T03:18:16;5.70;99.90
32664;DHT22;19847;48.670;9.242;2022-09-23T03:21:40;5.60;99.90
32664;DHT22;19847;48.670;9.242;2022-09-23T03:25:05;5.60;99.90
32664;DHT22;19847;48.670;9.242;2022-09-23T03:28:29;5.50;99.90
32664;DHT22;19847;48.670;9.242;2022-09-23T03:31:52;5.50;99.90
32664;DHT22;19847;48.670;9.242;2022-09-23T03:35:15;5.50;99.90
32664;DHT22;19847;48.670;9.242;2022-09-23T03:38:38;5.50;99.90
32664;DHT22;19847;48.670;9.242;2022-09-23T03:42:02;5.40;99.90
32664;DHT22;19847;48.670;9.242;2022-09-23T03:45:25;5.40;99.90
32664;DHT22;19847;48.670;9.242;2022-09-23T03:48:49;5.40;99.90
32664;DHT22;19847;48.670;9.242;2022-09-23T03:52:10;5.30;99.90
32664;DHT22;19847;48.670;9.242;2022-09-23T03:55:32;5.30;99.90
32664;DHT22;19847;48.670;9.242;2022-09-23T03:58:53;5.30;99.90
32664;DHT22;19847;48.670;9.242;2022-09-23T04:02:15;5.30;99.90
32664;DHT22;19847;48.670;9.242;2022-09-23T04:05:38;5.30;99.90
32664;DHT22;19847;48.670;9.242;2022-09-23T04:09:00;5.20;99.90
32664;DHT22;19847;48.670;9.242;2022-09-23T04:12:21;5.20;99.90
32664;DHT22;19847;48.670;9.242;2022-09-23T04:15:43;5.20;99.90
32664;DHT22;19847;48.670;9.242;2022-09-23T04:19:04;5.20;99.90
32664;DHT22;19847;48.670;9.242;2022-09-23T04:22:33;5.20;99.90
32664;DHT22;19847;48.670;9.242;2022-09-23T04:25:55;5.20;99.90
32664;DHT22;19847;48.670;9.242;2022-09-23T04:29:16;5.20;99.90
32664;DHT22;19847;48.670;9.242;2022-09-23T04:32:38;5.20;99.90
32664;DHT22;19847;48.670;9.242;2022-09-23T04:36:00;5.20;99.90
32664;DHT22;19847;48.670;9.242;2022-09-23T04:39:22;5.20;99.90
32664;DHT22;19847;48.670;9.242;2022-09-23T04:42:44;5.20;99.90
32664;DHT22;19847;48.670;9.242;2022-09-23T04:46:06;5.10;99.90
32664;DHT22;19847;48.670;9.242;2022-09-23T04:49:28;5.10;99.90
32664;DHT22;19847;48.670;9.242;2022-09-23T04:52:50;5.10;99.90
32664;DHT22;19847;48.670;9.242;2022-09-23T04:56:13;5.00;99.90
32664;DHT22;19847;48.670;9.242;2022-09-23T04:59:35;5.00;99.90
32664;DHT22;19847;48.670;9.242;2022-09-23T05:02:56;5.00;99.90
32664;DHT22;19847;48.670;9.242;2022-09-23T05:06:18;5.00;99.90
32664;DHT22;19847;48.670;9.242;2022-09-23T05:09:40;5.00;99.90
32664;DHT22;19847;48.670;9.242;2022-09-23T05:13:03;5.00;99.90
32664;DHT22;19847;48.670;9.242;2022-09-23T05:16:25;5.10;99.90
32664;DHT22;19847;48.670;9.242;2022-09-23T05:19:47;5.10;99.90
32664;DHT22;19847;48.670;9.242;2022-09-23T05:23:08;5.20;99.90
32664;DHT22;19847;48.670;9.242;2022-09-23T05:26:30;5.20;99.90
32664;DHT22;19847;48.670;9.242;2022-09-23T05:29:53;5.30;99.90
32664;DHT22;19847;48.670;9.242;2022-09-23T05:33:15;5.30;99.90
32664;DHT22;19847;48.670;9.242;2022-09-23T05:36:36;5.40;99.90
32664;DHT22;19847;48.670;9.242;2022-09-23T05:39:59;5.50;99.90
32664;DHT22;19847;48.670;9.242;2022-09-23T05:43:21;5.60;99.90
32664;DHT22;19847;48.670;9.242;2022-09-23T05:46:44;5.70;99.90
32664;DHT22;19847;48.670;9.242;2022-09-23T05:50:06;5.70;99.90
32664;DHT22;19847;48.670;9.242;2022-09-23T05:53:28;5.90;99.90
32664;DHT22;19847;48.670;9.242;2022-09-23T05:56:50;6.00;99.90
32664;DHT22;19847;48.670;9.242;2022-09-23T06:00:11;6.20;99.90
32664;DHT22;19847;48.670;9.242;2022-09-23T06:03:34;6.30;99.90
32664;DHT22;19847;48.670;9.242;2022-09-23T06:06:56;6.50;99.90
32664;DHT22;19847;48.670;9.242;2022-09-23T06:10:23;6.60;99.90
32664;DHT22;19847;48.670;9.242;2022-09-23T06:13:45;6.80;99.90
32664;DHT22;19847;48.670;9.242;2022-09-23T06:17:06;7.00;99.90
32664;DHT22;19847;48.670;9.242;2022-09-23T06:20:29;7.20;99.90
32664;DHT22;19847;48.670;9.242;2022-09-23T06:23:51;7.40;99.90
32664;DHT22;19847;48.670;9.242;2022-09-23T06:27:17;7.60;99.90
32664;DHT22;19847;48.670;9.242;2022-09-23T06:30:39;7.90;99.90
32664;DHT22;19847;48.670;9.242;2022-09-23T06:34:00;8.00;99.90
32664;DHT22;19847;48.670;9.242;2022-09-23T06:37:34;8.10;99.90
32664;DHT22;19847;48.670;9.242;2022-09-23T06:40:56;8.20;99.90
32664;DHT22;19847;48.670;9.242;2022-09-23T06:44:18;8.40;99.90
32664;DHT22;19847;48.670;9.242;2022-09-23T06:47:40;8.70;99.90
32664;DHT22;19847;48.670;9.242;2022-09-23T06:51:02;9.00;99.90
32664;DHT22;19847;48.670;9.242;2022-09-23T06:54:25;9.20;99.90
32664;DHT22;19847;48.670;9.242;2022-09-23T06:57:47;9.50;99.90
32664;DHT22;19847;48.670;9.242;2022-09-23T07:01:09;9.70;99.90
32664;DHT22;19847;48.670;9.242;2022-09-23T07:04:31;9.90;99.90
32664;DHT22;19847;48.670;9.242;2022-09-23T07:07:53;9.80;99.90
32664;DHT22;19847;48.670;9.242;2022-09-23T07:11:16;10.00;99.90
32664;DHT22;19847;48.670;9.242;2022-09-23T07:14:37;10.30;99.90
32664;DHT22;19847;48.670;9.242;2022-09-23T07:17:59;10.60;99.90
32664;DHT22;19847;48.670;9.242;2022-09-23T07:21:20;10.80;99.90
32664;DHT22;19847;48.670;9.242;2022-09-23T07:24:42;11.40;99.90
32664;DHT22;19847;48.670;9.242;2022-09-23T07:28:05;12.10;99.90
32664;DHT22;19847;48.670;9.242;2022-09-23T07:31:27;13.00;99.90
32664;DHT22;19847;48.670;9.242;2022-09-23T07:34:59;13.50;99.90
32664;DHT22;19847;48.670;9.242;2022-09-23T07:38:21;14.80;99.90
32664;DHT22;19847;48.670;9.242;2022-09-23T07:41:43;16.30;99.90
32664;DHT22;19847;48.670;9.242;2022-09-23T07:45:07;17.20;99.90
32664;DHT22;19847;48.670;9.242;2022-09-23T07:48:29;18.30;99.90
32664;DHT22;19847;48.670;9.242;2022-09-23T07:51:55;19.80;99.90
32664;DHT22;19847;48.670;9.242;2022-09-23T07:55:16;20.80;99.90
32664;DHT22;19847;48.670;9.242;2022-09-23T07:58:41;20.00;98.60
32664;DHT22;19847;48.670;9.242;2022-09-23T08:02:04;20.10;98.70
32664;DHT22;19847;48.670;9.242;2022-09-23T08:05:26;19.70;97.00
32664;DHT22;19847;48.670;9.242;2022-09-23T08:08:48;19.20;98.00
32664;DHT22;19847;48.670;9.242;2022-09-23T08:12:15;18.80;99.90
32664;DHT22;19847;48.670;9.242;2022-09-23T08:15:37;18.50;99.70
32664;DHT22;19847;48.670;9.242;2022-09-23T08:19:00;18.40;99.30
32664;DHT22;19847;48.670;9.242;2022-09-23T08:22:22;17.90;98.80
32664;DHT22;19847;48.670;9.242;2022-09-23T08:25:44;17.50;99.90
32664;DHT22;19847;48.670;9.242;2022-09-23T08:29:07;17.20;99.90
32664;DHT22;19847;48.670;9.242;2022-09-23T08:32:29;17.50;99.90
32664;DHT22;19847;48.670;9.242;2022-09-23T08:35:57;17.50;99.70
32664;DHT22;19847;48.670;9.242;2022-09-23T08:39:19;17.80;99.90
32664;DHT22;19847;48.670;9.242;2022-09-23T08:42:41;18.10;99.90
32664;DHT22;19847;48.670;9.242;2022-09-23T08:46:04;18.40;99.90
32664;DHT22;19847;48.670;9.242;2022-09-23T08:49:27;18.40;99.90
32664;DHT22;19847;48.670;9.242;2022-09-23T08:52:54;18.60;99.40
32664;DHT22;19847;48.670;9.242;2022-09-23T08:56:16;19.00;99.90
32664;DHT22;19847;48.670;9.242;2022-09-23T08:59:40;19.00;98.20
32664;DHT22;19847;48.670;9.242;2022-09-23T09:03:03;19.20;99.40
32664;DHT22;19847;48.670;9.242;2022-09-23T09:06:25;19.30;99.90
32664;DHT22;19847;48.670;9.242;2022-09-23T09:09:52;19.10;97.20
32664;DHT22;19847;48.670;9.242;2022-09-23T09:13:19;19.30;97.40
32664;DHT22;19847;48.670;9.242;2022-09-23T09:20:44;19.40;97.80
32664;DHT22;19847;48.670;9.242;2022-09-23T09:24:13;18.80;99.90
32664;DHT22;19847;48.670;9.242;2022-09-23T09:27:37;18.60;99.90
32664;DHT22;19847;48.670;9.242;2022-09-23T09:31:02;18.60;99.90
32664;DHT22;19847;48.670;9.242;2022-09-23T09:34:28;18.60;99.90
32664;DHT22;19847;48.670;9.242;2022-09-23T09:37:51;19.00;99.90
32664;DHT22;19847;48.670;9.242;2022-09-23T09:41:14;19.40;99.90
32664;DHT22;19847;48.670;9.242;2022-09-23T09:44:45;19.70;98.30
32664;DHT22;19847;48.670;9.242;2022-09-23T09:48:08;20.10;98.20
32664;DHT22;19847;48.670;9.242;2022-09-23T09:51:31;20.70;96.20
32664;DHT22;19847;48.670;9.242;2022-09-23T09:54:53;20.90;99.90
32664;DHT22;19847;48.670;9.242;2022-09-23T09:58:14;21.10;96.40
32664;DHT22;19847;48.670;9.242;2022-09-23T10:01:38;21.40;95.70
32664;DHT22;19847;48.670;9.242;2022-09-23T10:05:01;21.10;94.40
32664;DHT22;19847;48.670;9.242;2022-09-23T10:08:25;20.30;95.50
32664;DHT22;19847;48.670;9.242;2022-09-23T10:12:00;20.80;98.10
32664;DHT22;19847;48.670;9.242;2022-09-23T10:15:27;21.50;95.50
32664;DHT22;19847;48.670;9.242;2022-09-23T10:18:50;21.90;96.50
32664;DHT22;19847;48.670;9.242;2022-09-23T10:22:16;22.00;95.50
32664;DHT22;19847;48.670;9.242;2022-09-23T10:25:38;21.60;96.30
32664;DHT22;19847;48.670;9.242;2022-09-23T10:29:01;21.50;97.10
32664;DHT22;19847;48.670;9.242;2022-09-23T10:32:25;21.10;96.90
32664;DHT22;19847;48.670;9.242;2022-09-23T10:35:52;20.60;96.10
32664;DHT22;19847;48.670;9.242;2022-09-23T10:39:14;19.90;97.00
32664;DHT22;19847;48.670;9.242;2022-09-23T10:42:40;19.60;98.00
32664;DHT22;19847;48.670;9.242;2022-09-23T10:46:11;19.10;97.60
32664;DHT22;19847;48.670;9.242;2022-09-23T10:49:41;19.10;97.40
32664;DHT22;19847;48.670;9.242;2022-09-23T10:53:14;19.20;99.50
32664;DHT22;19847;48.670;9.242;2022-09-23T10:56:38;19.20;97.30
32664;DHT22;19847;48.670;9.242;2022-09-23T11:00:00;19.00;98.90
32664;DHT22;19847;48.670;9.242;2022-09-23T11:03:35;19.10;97.90
32664;DHT22;19847;48.670;9.242;2022-09-23T11:07:06;19.00;98.70
32664;DHT22;19847;48.670;9.242;2022-09-23T11:14:18;19.10;99.40
32664;DHT22;19847;48.670;9.242;2022-09-23T11:17:47;19.50;98.50
32664;DHT22;19847;48.670;9.242;2022-09-23T11:21:17;19.60;98.20
32664;DHT22;19847;48.670;9.242;2022-09-23T11:24:47;19.40;98.10
32664;DHT22;19847;48.670;9.242;2022-09-23T11:28:21;19.20;97.70
32664;DHT22;19847;48.670;9.242;2022-09-23T11:31:49;19.00;97.80
32664;DHT22;19847;48.670;9.242;2022-09-23T11:35:20;18.80;97.90
32664;DHT22;19847;48.670;9.242;2022-09-23T11:38:43;18.60;98.60
32664;DHT22;19847;48.670;9.242;2022-09-23T11:42:06;18.50;98.40
32664;DHT22;19847;48.670;9.242;2022-09-23T11:45:34;18.60;99.30
32664;DHT22;19847;48.670;9.242;2022-09-23T11:49:02;18.60;97.60
32664;DHT22;19847;48.670;9.242;2022-09-23T11:52:26;18.60;98.60
32664;DHT22;19847;48.670;9.242;2022-09-23T11:55:51;18.80;98.30
32664;DHT22;19847;48.670;9.242;2022-09-23T11:59:21;18.90;99.50
32664;DHT22;19847;48.670;9.242;2022-09-23T12:03:02;19.00;97.40
32664;DHT22;19847;48.670;9.242;2022-09-23T12:06:31;19.20;97.70
32664;DHT22;19847;48.670;9.242;2022-09-23T12:09:55;19.40;97.00
32664;DHT22;19847;48.670;9.242;2022-09-23T12:13:19;19.50;96.90
32664;DHT22;19847;48.670;9.242;2022-09-23T12:20:27;19.20;98.40
32664;DHT22;19847;48.670;9.242;2022-09-23T12:24:04;19.40;97.70
32664;DHT22;19847;48.670;9.242;2022-09-23T12:27:30;19.40;97.30
32664;DHT22;19847;48.670;9.242;2022-09-23T12:30:53;19.40;96.80
32664;DHT22;19847;48.670;9.242;2022-09-23T12:34:19;19.60;96.70
32664;DHT22;19847;48.670;9.242;2022-09-23T12:37:42;19.40;96.50
32664;DHT22;19847;48.670;9.242;2022-09-23T12:41:18;19.20;97.10
32664;DHT22;19847;48.670;9.242;2022-09-23T12:44:41;19.00;96.90
32664;DHT22;19847;48.670;9.242;2022-09-23T12:48:03;18.80;97.70
32664;DHT22;19847;48.670;9.242;2022-09-23T12:51:25;18.80;97.60
32664;DHT22;19847;48.670;9.242;2022-09-23T12:54:47;18.80;97.50
32664;DHT22;19847;48.670;9.242;2022-09-23T13:01:47;18.90;97.30
32664;DHT22;19847;48.670;9.242;2022-09-23T13:05:18;19.10;97.30
32664;DHT22;19847;48.670;9.242;2022-09-23T13:08:40;19.10;96.90
32664;DHT22;19847;48.670;9.242;2022-09-23T13:12:04;19.20;97.10
32664;DHT22;19847;48.670;9.242;2022-09-23T13:15:27;19.20;96.30
32664;DHT22;19847;48.670;9.242;2022-09-23T13:18:51;19.20;96.20
32664;DHT22;19847;48.670;9.242;2022-09-23T13:22:13;19.30;96.90
32664;DHT22;19847;48.670;9.242;2022-09-23T13:25:56;19.20;97.00
32664;DHT22;19847;48.670;9.242;2022-09-23T13:29:19;19.10;96.80
32664;DHT22;19847;48.670;9.242;2022-09-23T13:32:44;19.00;97.40
32664;DHT22;19847;48.670;9.242;2022-09-23T13:36:11;18.90;97.80
32664;DHT22;19847;48.670;9.242;2022-09-23T13:39:33;18.90;97.70
32664;DHT22;19847;48.670;9.242;2022-09-23T13:42:55;18.80;98.10
32664;DHT22;19847;48.670;9.242;2022-09-23T13:46:19;18.70;98.30
32664;DHT22;19847;48.670;9.242;2022-09-23T13:49:41;18.60;98.00
32664;DHT22;19847;48.670;9.242;2022-09-23T13:53:06;18.50;98.30
32664;DHT22;19847;48.670;9.242;2022-09-23T13:56:29;18.50;98.10
32664;DHT22;19847;48.670;9.242;2022-09-23T13:59:51;18.60;97.70
32664;DHT22;19847;48.670;9.242;2022-09-23T14:03:16;18.60;97.90
32664;DHT22;19847;48.670;9.242;2022-09-23T14:06:38;18.70;97.60
32664;DHT22;19847;48.670;9.242;2022-09-23T14:10:03;19.00;98.40
32664;DHT22;19847;48.670;9.242;2022-09-23T14:13:26;19.30;98.60
32664;DHT22;19847;48.670;9.242;2022-09-23T14:16:48;19.60;96.80
32664;DHT22;19847;48.670;9.242;2022-09-23T14:20:12;19.80;96.70
32664;DHT22;19847;48.670;9.242;2022-09-23T14:23:34;19.70;95.80
32664;DHT22;19847;48.670;9.242;2022-09-23T14:26:57;19.70;96.00
32664;DHT22;19847;48.670;9.242;2022-09-23T14:30:20;19.70;96.10
32664;DHT22;19847;48.670;9.242;2022-09-23T14:33:42;19.60;95.90
32664;DHT22;19847;48.670;9.242;2022-09-23T14:37:08;19.50;96.10
32664;DHT22;19847;48.670;9.242;2022-09-23T14:40:30;19.40;96.40
32664;DHT22;19847;48.670;9.242;2022-09-23T14:43:55;19.40;96.20
32664;DHT22;19847;48.670;9.242;2022-09-23T14:47:17;19.20;96.70
32664;DHT22;19847;48.670;9.242;2022-09-23T14:50:43;19.00;96.30
32664;DHT22;19847;48.670;9.242;2022-09-23T14:54:22;18.80;97.80
32664;DHT22;19847;48.670;9.242;2022-09-23T14:57:44;18.70;97.10
32664;DHT22;19847;48.670;9.242;2022-09-23T15:01:20;18.70;97.40
32664;DHT22;19847;48.670;9.242;2022-09-23T15:04:44;18.70;97.10
32664;DHT22;19847;48.670;9.242;2022-09-23T15:08:05;18.60;97.30
32664;DHT22;19847;48.670;9.242;2022-09-23T15:11:28;18.60;97.00
32664;DHT22;19847;48.670;9.242;2022-09-23T15:14:51;18.50;97.30
32664;DHT22;19847;48.670;9.242;2022-09-23T15:18:16;18.40;96.90
32664;DHT22;19847;48.670;9.242;2022-09-23T15:21:38;18.40;97.70
32664;DHT22;19847;48.670;9.242;2022-09-23T15:25:12;18.30;97.20
32664;DHT22;19847;48.670;9.242;2022-09-23T15:28:35;18.20;97.50
32664;DHT22;19847;48.670;9.242;2022-09-23T15:31:56;18.10;98.20
32664;DHT22;19847;48.670;9.242;2022-09-23T15:35:20;18.00;97.80
32664;DHT22;19847;48.670;9.242;2022-09-23T15:38:43;18.00;98.60
32664;DHT22;19847;48.670;9.242;2022-09-23T15:42:04;17.90;98.30
32664;DHT22;19847;48.670;9.242;2022-09-23T15:45:27;17.90;98.20
32664;DHT22;19847;48.670;9.242;2022-09-23T15:48:53;17.90;98.50
32664;DHT22;19847;48.670;9.242;2022-09-23T15:52:20;17.80;99.00
32664;DHT22;19847;48.670;9.242;2022-09-23T15:55:42;17.70;98.90
32664;DHT22;19847;48.670;9.242;2022-09-23T15:59:03;17.50;99.50
32664;DHT22;19847;48.670;9.242;2022-09-23T16:02:25;17.40;99.10
32664;DHT22;19847;48.670;9.242;2022-09-23T16:05:47;17.40;99.60
32664;DHT22;19847;48.670;9.242;2022-09-23T16:09:10;17.30;99.90
32664;DHT22;19847;48.670;9.242;2022-09-23T16:12:32;17.20;99.30
32664;DHT22;19847;48.670;9.242;2022-09-23T16:15:53;17.10;99.30
32664;DHT22;19847;48.670;9.242;2022-09-23T16:19:15;17.10;99.40
32664;DHT22;19847;48.670;9.242;2022-09-23T16:22:37;17.10;99.20
32664;DHT22;19847;48.670;9.242;2022-09-23T16:26:01;17.00;99.80
32664;DHT22;19847;48.670;9.242;2022-09-23T16:29:23;16.90;99.90
32664;DHT22;19847;48.670;9.242;2022-09-23T16:32:45;16.80;99.90
32664;DHT22;19847;48.670;9.242;2022-09-23T16:36:08;16.80;99.90
32664;DHT22;19847;48.670;9.242;2022-09-23T16:39:34;16.70;99.90
32664;DHT22;19847;48.670;9.242;2022-09-23T16:42:57;16.60;99.90
32664;DHT22;19847;48.670;9.242;2022-09-23T16:46:18;16.50;99.90
32664;DHT22;19847;48.670;9.242;2022-09-23T16:49:40;16.40;99.90
32664;DHT22;19847;48.670;9.242;2022-09-23T16:53:02;16.30;99.90
32664;DHT22;19847;48.670;9.242;2022-09-23T16:56:24;16.10;99.90
32664;DHT22;19847;48.670;9.242;2022-09-23T16:59:50;16.00;99.90
32664;DHT22;19847;48.670;9.242;2022-09-23T17:03:12;15.80;99.90
32664;DHT22;19847;48.670;9.242;2022-09-23T17:06:33;15.70;99.90
32664;DHT22;19847;48.670;9.242;2022-09-23T17:09:55;15.60;99.90
32664;DHT22;19847;48.670;9.242;2022-09-23T17:13:16;15.50;99.90
32664;DHT22;19847;48.670;9.242;2022-09-23T17:16:39;15.50;99.90
32664;DHT22;19847;48.670;9.242;2022-09-23T17:20:01;15.40;99.90
32664;DHT22;19847;48.670;9.242;2022-09-23T17:23:23;15.30;99.90
32664;DHT22;19847;48.670;9.242;2022-09-23T17:26:45;15.20;99.90
32664;DHT22;19847;48.670;9.242;2022-09-23T17:30:13;15.10;99.90
32664;DHT22;19847;48.670;9.242;2022-09-23T17:33:36;15.10;99.90
32664;DHT22;19847;48.670;9.242;2022-09-23T17:36:57;14.90;99.90
32664;DHT22;19847;48.670;9.242;2022-09-23T17:40:19;14.80;99.90
32664;DHT22;19847;48.670;9.242;2022-09-23T17:43:40;14.70;99.90
32664;DHT22;19847;48.670;9.242;2022-09-23T17:47:02;14.60;99.90
32664;DHT22;19847;48.670;9.242;2022-09-23T17:50:25;14.50;99.90
32664;DHT22;19847;48.670;9.242;2022-09-23T17:53:47;14.30;99.90
32664;DHT22;19847;48.670;9.242;2022-09-23T17:57:09;14.20;99.90
32664;DHT22;19847;48.670;9.242;2022-09-23T18:00:31;14.10;99.90
32664;DHT22;19847;48.670;9.242;2022-09-23T18:03:52;14.00;99.90
32664;DHT22;19847;48.670;9.242;2022-09-23T18:07:15;13.90;99.90
32664;DHT22;19847;48.670;9.242;2022-09-23T18:10:37;13.90;99.90
32664;DHT22;19847;48.670;9.242;2022-09-23T18:13:59;13.70;99.90
32664;DHT22;19847;48.670;9.242;2022-09-23T18:17:21;13.70;99.90
32664;DHT22;19847;48.670;9.242;2022-09-23T18:20:43;13.60;99.90
32664;DHT22;19847;48.670;9.242;2022-09-23T18:24:06;13.60;99.90
32664;DHT22;19847;48.670;9.242;2022-09-23T18:27:48;13.50;99.90
32664;DHT22;19847;48.670;9.242;2022-09-23T18:31:10;13.40;99.90
32664;DHT22;19847;48.670;9.242;2022-09-23T18:34:31;13.30;99.90
32664;DHT22;19847;48.670;9.242;2022-09-23T18:37:53;13.30;99.90
32664;DHT22;19847;48.670;9.242;2022-09-23T18:41:16;13.30;99.90
32664;DHT22;19847;48.670;9.242;2022-09-23T18:44:38;13.20;99.90
32664;DHT22;19847;48.670;9.242;2022-09-23T18:48:00;13.20;99.90
32664;DHT22;19847;48.670;9.242;2022-09-23T18:51:21;13.20;99.90
32664;DHT22;19847;48.670;9.242;2022-09-23T18:54:43;13.20;99.90
32664;DHT22;19847;48.670;9.242;2022-09-23T18:58:06;13.20;99.90
32664;DHT22;19847;48.670;9.242;2022-09-23T19:01:28;13.20;99.90
32664;DHT22;19847;48.670;9.242;2022-09-23T19:04:49;13.20;99.90
32664;DHT22;19847;48.670;9.242;2022-09-23T19:08:11;13.20;99.90
32664;DHT22;19847;48.670;9.242;2022-09-23T19:11:33;13.20;99.90
32664;DHT22;19847;48.670;9.242;2022-09-23T19:14:56;13.20;99.90
32664;DHT22;19847;48.670;9.242;2022-09-23T19:18:18;13.20;99.90
32664;DHT22;19847;48.670;9.242;2022-09-23T19:21:39;13.10;99.90
32664;DHT22;19847;48.670;9.242;2022-09-23T19:25:01;13.10;99.90
32664;DHT22;19847;48.670;9.242;2022-09-23T19:28:22;13.10;99.90
32664;DHT22;19847;48.670;9.242;2022-09-23T19:31:45;13.00;99.90
32664;DHT22;19847;48.670;9.242;2022-09-23T19:35:07;13.00;99.90
32664;DHT22;19847;48.670;9.242;2022-09-23T19:38:29;12.90;99.90
32664;DHT22;19847;48.670;9.242;2022-09-23T19:41:51;12.90;99.90
32664;DHT22;19847;48.670;9.242;2022-09-23T19:45:13;12.90;99.90
32664;DHT22;19847;48.670;9.242;2022-09-23T19:48:35;12.90;99.90
32664;DHT22;19847;48.670;9.242;2022-09-23T19:51:57;12.80;99.90
32664;DHT22;19847;48.670;9.242;2022-09-23T19:55:19;12.80;99.90
32664;DHT22;19847;48.670;9.242;2022-09-23T19:58:41;12.70;99.90
32664;DHT22;19847;48.670;9.242;2022-09-23T20:02:02;12.60;99.90
32664;DHT22;19847;48.670;9.242;2022-09-23T20:05:26;12.50;99.90
32664;DHT22;19847;48.670;9.242;2022-09-23T20:08:47;12.50;99.90
32664;DHT22;19847;48.670;9.242;2022-09-23T20:12:10;12.40;99.90
32664;DHT22;19847;48.670;9.242;2022-09-23T20:15:31;12.40;99.90
32664;DHT22;19847;48.670;9.242;2022-09-23T20:18:53;12.30;99.90
32664;DHT22;19847;48.670;9.242;2022-09-23T20:22:16;12.30;99.90
32664;DHT22;19847;48.670;9.242;2022-09-23T20:25:38;12.30;99.90
32664;DHT22;19847;48.670;9.242;2022-09-23T20:28:59;12.30;99.90
32664;DHT22;19847;48.670;9.242;2022-09-23T20:32:21;12.30;99.90
32664;DHT22;19847;48.670;9.242;2022-09-23T20:35:42;12.30;99.90
32664;DHT22;19847;48.670;9.242;2022-09-23T20:39:11;12.30;99.90
32664;DHT22;19847;48.670;9.242;2022-09-23T20:42:33;12.30;99.90
32664;DHT22;19847;48.670;9.242;2022-09-23T20:45:55;12.30;99.90
32664;DHT22;19847;48.670;9.242;2022-09-23T20:49:16;12.30;99.90
32664;DHT22;19847;48.670;9.242;2022-09-23T20:52:38;12.20;99.90
32664;DHT22;19847;48.670;9.242;2022-09-23T20:56:01;12.20;99.90
32664;DHT22;19847;48.670;9.242;2022-09-23T20:59:23;12.20;99.90
32664;DHT22;19847;48.670;9.242;2022-09-23T21:02:45;12.10;99.90
32664;DHT22;19847;48.670;9.242;2022-09-23T21:06:07;12.10;99.90
32664;DHT22;19847;48.670;9.242;2022-09-23T21:09:29;12.00;99.90
32664;DHT22;19847;48.670;9.242;2022-09-23T21:12:52;12.00;99.90
32664;DHT22;19847;48.670;9.242;2022-09-23T21:16:14;12.00;99.90
32664;DHT22;19847;48.670;9.242;2022-09-23T21:19:36;11.90;99.90
32664;DHT22;19847;48.670;9.242;2022-09-23T21:22:58;11.90;99.90
32664;DHT22;19847;48.670;9.242;2022-09-23T21:26:20;11.80;99.90
32664;DHT22;19847;48.670;9.242;2022-09-23T21:29:44;11.80;99.90
32664;DHT22;19847;48.670;9.242;2022-09-23T21:33:05;11.80;99.90
32664;DHT22;19847;48.670;9.242;2022-09-23T21:36:27;11.80;99.90
32664;DHT22;19847;48.670;9.242;2022-09-23T21:39:49;11.70;99.90
32664;DHT22;19847;48.670;9.242;2022-09-23T21:43:11;11.70;99.90
32664;DHT22;19847;48.670;9.242;2022-09-23T21:46:34;11.70;99.90
32664;DHT22;19847;48.670;9.242;2022-09-23T21:49:56;11.70;99.90